Time;durP1;ratioP1;P1;durP2;ratioP2;P2;SDS_P1;SDS_P2;PMS_P1;PMS_P2;Temp;Humidity;BMP_temperature;BMP_pressure;BME280_temperature;BME280_humidity;BME280_pressure;Samples;Min_cycle;Max_cycle;Signal;HPM_P1;HPM_P2
2022/12/03 00:02:08;;;;;;;47.55;22.25;;;;;;;-0.90;100.00;96526.38;4999881;28;20379;-72
2022/12/03 00:04:33;;;;;;;46.55;22.73;;;;;;;-0.93;100.00;96517.03;5005027;28;20045;-69
2022/12/03 00:06:59;;;;;;;45.67;21.23;;;;;;;-0.83;100.00;96524.13;5004096;28;20567;-71
2022/12/03 00:09:24;;;;;;;43.65;21.13;;;;;;;-0.96;100.00;96515.72;5000307;28;20053;-69
2022/12/03 00:11:49;;;;;;;43.53;20.10;;;;;;;-1.02;100.00;96521.50;5006240;28;20050;-70
2022/12/03 00:14:15;;;;;;;40.88;20.13;;;;;;;-1.05;100.00;96522.09;5006783;28;20471;-69
2022/12/03 00:16:40;;;;;;;39.72;22.00;;;;;;;-1.12;100.00;96521.69;5017969;28;20105;-74
2022/12/03 00:19:06;;;;;;;40.38;19.85;;;;;;;-1.08;100.00;96518.13;5012315;28;20053;-70
2022/12/03 00:21:33;;;;;;;38.30;20.92;;;;;;;-1.14;100.00;96527.34;5010365;28;20053;-70
2022/12/03 00:23:58;;;;;;;45.80;21.63;;;;;;;-1.22;100.00;96517.28;5009140;28;20395;-70
2022/12/03 00:26:23;;;;;;;44.92;20.17;;;;;;;-1.24;100.00;96514.88;5004569;28;20045;-69
2022/12/03 00:28:49;;;;;;;46.10;21.60;;;;;;;-1.22;100.00;96520.75;5005472;28;20042;-68
2022/12/03 00:31:14;;;;;;;47.05;23.02;;;;;;;-1.30;100.00;96515.25;4993330;28;20101;-70
2022/12/03 00:33:40;;;;;;;47.90;22.77;;;;;;;-1.32;100.00;96515.56;4997910;28;20050;-70
2022/12/03 00:36:05;;;;;;;44.00;21.80;;;;;;;-1.35;100.00;96516.16;4999133;28;20046;-70
2022/12/03 00:38:31;;;;;;;49.28;21.92;;;;;;;-1.31;100.00;96511.00;5013357;28;20402;-71
2022/12/03 00:40:56;;;;;;;46.33;22.17;;;;;;;-1.34;100.00;96515.06;5013344;28;20120;-69
2022/12/03 00:43:21;;;;;;;48.63;21.80;;;;;;;-1.30;100.00;96523.31;5014075;28;20042;-70
2022/12/03 00:45:47;;;;;;;44.70;22.67;;;;;;;-1.30;100.00;96526.78;5013474;28;20033;-70
2022/12/03 00:48:12;;;;;;;44.40;22.15;;;;;;;-1.34;100.00;96523.13;5014300;28;20029;-71
2022/12/03 00:50:37;;;;;;;47.55;22.20;;;;;;;-1.36;100.00;96525.31;5015650;28;20083;-71
2022/12/03 00:53:03;;;;;;;45.60;21.25;;;;;;;-1.39;100.00;96523.19;5014634;28;20057;-70
2022/12/03 00:55:28;;;;;;;48.00;23.23;;;;;;;-1.35;100.00;96521.53;5013950;28;20030;-71
2022/12/03 00:57:54;;;;;;;47.47;23.27;;;;;;;-1.40;100.00;96510.88;5014005;28;20037;-70
2022/12/03 01:00:23;;;;;;;48.88;24.30;;;;;;;-1.38;100.00;96519.44;5013779;28;20109;-70
2022/12/03 01:02:49;;;;;;;45.40;21.02;;;;;;;-1.36;100.00;96522.63;4996156;28;20033;-71
2022/12/03 01:05:15;;;;;;;48.67;23.13;;;;;;;-1.31;100.00;96525.22;5013609;28;20057;-70
2022/12/03 01:07:40;;;;;;;51.88;25.75;;;;;;;-1.26;100.00;96530.50;5012826;28;20084;-71
2022/12/03 01:10:06;;;;;;;52.65;25.15;;;;;;;-1.29;100.00;96524.94;5013459;28;20048;-70
2022/12/03 01:12:32;;;;;;;49.47;23.38;;;;;;;-1.31;100.00;96527.91;5013532;28;20069;-69
2022/12/03 01:14:57;;;;;;;49.92;24.00;;;;;;;-1.33;100.00;96526.59;5013445;28;20470;-70
2022/12/03 01:17:22;;;;;;;53.00;25.65;;;;;;;-1.29;100.00;96525.72;5013258;28;20029;-71
2022/12/03 01:19:51;;;;;;;50.55;25.23;;;;;;;-1.31;100.00;96525.22;5013658;28;20069;-71
2022/12/03 01:22:16;;;;;;;48.13;23.30;;;;;;;-1.30;100.00;96518.75;5013520;28;20034;-69
2022/12/03 01:24:42;;;;;;;53.28;24.73;;;;;;;-1.24;100.00;96522.13;5011956;28;20065;-71
2022/12/03 01:27:07;;;;;;;50.90;25.13;;;;;;;-1.24;100.00;96514.06;5011446;28;20072;-71
2022/12/03 01:29:32;;;;;;;50.85;24.10;;;;;;;-1.28;100.00;96515.75;5013330;28;20446;-70
2022/12/03 01:32:16;;;;;;;51.30;24.23;;;;;;;-1.29;100.00;96514.97;5013153;28;20033;-70
2022/12/03 01:34:42;;;;;;;51.92;23.77;;;;;;;-1.25;100.00;96520.56;5012986;28;20061;-69
2022/12/03 01:37:08;;;;;;;52.78;26.65;;;;;;;-1.18;100.00;96513.69;5012636;28;20120;-69
2022/12/03 01:39:33;;;;;;;51.58;24.02;;;;;;;-1.23;100.00;96521.84;5012428;28;20105;-69
2022/12/03 01:41:59;;;;;;;51.28;23.98;;;;;;;-1.26;100.00;96511.69;5013635;28;20045;-69
2022/12/03 01:44:28;;;;;;;51.40;25.40;;;;;;;-1.21;100.00;96508.91;5012604;28;20051;-68
2022/12/03 01:46:55;;;;;;;49.00;24.80;;;;;;;-1.22;100.00;96519.97;5012951;28;20041;-69
2022/12/03 01:49:25;;;;;;;45.55;22.10;;;;;;;-1.21;100.00;96516.97;5013125;28;20409;-68
2022/12/03 01:51:51;;;;;;;51.63;24.98;;;;;;;-1.19;100.00;96514.81;5012685;28;20069;-70
2022/12/03 01:54:25;;;;;;;47.92;24.15;;;;;;;-1.19;100.00;96511.31;5012832;28;20157;-70
2022/12/03 01:56:50;;;;;;;43.83;21.63;;;;;;;-1.19;100.00;96514.81;5011926;28;20045;-69
2022/12/03 01:59:18;;;;;;;46.58;21.30;;;;;;;-1.21;100.00;96518.88;5012503;28;20030;-69
2022/12/03 02:01:43;;;;;;;49.00;23.63;;;;;;;-1.25;100.00;96510.59;5012423;28;20453;-69
2022/12/03 02:04:14;;;;;;;50.60;22.60;;;;;;;-1.26;100.00;96527.81;5012363;28;20026;-70
2022/12/03 02:06:40;;;;;;;48.95;24.15;;;;;;;-1.27;100.00;96517.38;5011798;28;20659;-70
2022/12/03 02:09:08;;;;;;;43.35;23.02;;;;;;;-1.24;100.00;96514.88;5012381;28;20551;-70
2022/12/03 02:11:37;;;;;;;48.83;21.35;;;;;;;-1.30;100.00;96518.75;5012522;28;20144;-69
2022/12/03 02:14:07;;;;;;;49.90;24.52;;;;;;;-1.26;100.00;96522.44;5012343;28;20032;-69
2022/12/03 02:16:35;;;;;;;48.28;21.60;;;;;;;-1.24;100.00;96527.50;5011633;28;20033;-69
2022/12/03 02:19:00;;;;;;;45.92;22.60;;;;;;;-1.31;100.00;96521.75;5012351;28;20105;-69
2022/12/03 02:21:49;;;;;;;52.55;24.13;;;;;;;-1.26;100.00;96521.63;5034281;28;20040;-70
2022/12/03 02:24:36;;;;;;;56.90;24.05;;;;;;;-1.30;100.00;96529.47;5032481;28;20034;-70
2022/12/03 02:27:02;;;;;;;45.85;20.85;;;;;;;-1.27;100.00;96526.22;5011715;28;20061;-69
2022/12/03 02:29:29;;;;;;;45.88;21.00;;;;;;;-1.25;100.00;96524.03;5010522;28;20026;-67
2022/12/03 02:35:18;;;;;;;49.60;22.17;;;;;;;-1.22;100.00;96528.81;4992268;28;20049;-72
2022/12/03 02:37:45;;;;;;;46.13;22.52;;;;;;;-1.23;100.00;96516.47;4990678;28;20412;-72
2022/12/03 02:40:19;;;;;;;46.55;20.98;;;;;;;-1.22;100.00;96515.38;4992286;28;20061;-70
2022/12/03 02:42:46;;;;;;;49.22;23.27;;;;;;;-1.16;100.00;96526.84;4992281;28;20498;-68
2022/12/03 02:45:27;;;;;;;47.03;22.60;;;;;;;-1.20;100.00;96526.63;4992851;28;20040;-70
2022/12/03 02:47:58;;;;;;;47.63;24.10;;;;;;;-1.20;100.00;96513.19;4993169;28;20023;-70
2022/12/03 02:50:38;;;;;;;45.72;20.55;;;;;;;-1.16;100.00;96527.63;4992989;28;20042;-69
2022/12/03 02:53:08;;;;;;;46.40;21.58;;;;;;;-1.12;100.00;96535.91;4998093;28;20038;-67
2022/12/03 02:55:35;;;;;;;44.65;21.92;;;;;;;-1.15;100.00;96523.06;5006364;28;20034;-68
2022/12/03 02:58:02;;;;;;;49.17;20.92;;;;;;;-1.10;100.00;96532.94;4991903;28;20062;-69
2022/12/03 03:00:28;;;;;;;48.75;22.92;;;;;;;-1.12;100.00;96519.78;4991669;28;20104;-68
2022/12/03 03:02:54;;;;;;;43.90;22.00;;;;;;;-1.11;100.00;96532.13;4991923;28;20484;-68
2022/12/03 03:05:22;;;;;;;48.22;23.25;;;;;;;-1.11;100.00;96525.97;4991476;28;20058;-69
2022/12/03 03:07:49;;;;;;;45.25;22.77;;;;;;;-1.09;100.00;96531.84;4991785;28;20442;-68
2022/12/03 03:10:19;;;;;;;49.80;21.75;;;;;;;-1.04;100.00;96542.50;4992185;28;20029;-69
2022/12/03 03:12:45;;;;;;;48.40;22.65;;;;;;;-1.09;100.00;96524.56;4991786;28;20030;-69
2022/12/03 03:15:11;;;;;;;43.90;20.50;;;;;;;-1.10;100.00;96530.25;4991705;28;20029;-69
2022/12/03 03:17:37;;;;;;;48.22;23.63;;;;;;;-1.06;100.00;96531.22;4990920;28;20030;-70
2022/12/03 03:20:04;;;;;;;52.08;24.30;;;;;;;-1.05;100.00;96532.84;4991559;28;20107;-69
2022/12/03 03:22:34;;;;;;;50.45;22.08;;;;;;;-0.93;100.00;96546.63;4991527;28;20064;-71
2022/12/03 03:25:00;;;;;;;45.58;19.33;;;;;;;-0.72;100.00;96546.22;4991738;28;20034;-70
2022/12/03 03:27:27;;;;;;;45.88;21.23;;;;;;;-0.80;100.00;96547.72;4990972;28;20036;-69
2022/12/03 03:29:52;;;;;;;45.78;19.33;;;;;;;-0.73;100.00;96545.44;4991945;28;20620;-71
2022/12/03 03:32:18;;;;;;;45.60;21.85;;;;;;;-0.90;100.00;96539.84;4995358;28;20034;-68
2022/12/03 03:34:44;;;;;;;42.50;22.27;;;;;;;-0.99;100.00;96555.84;4995579;28;20034;-70
2022/12/03 03:37:09;;;;;;;48.05;21.10;;;;;;;-0.97;100.00;96545.63;4995185;28;20044;-71
2022/12/03 03:39:34;;;;;;;54.50;22.85;;;;;;;-1.00;100.00;96548.88;5010465;28;20220;-71
2022/12/03 03:42:00;;;;;;;41.97;20.17;;;;;;;-1.03;100.00;96550.25;4995902;28;20023;-70
2022/12/03 03:44:27;;;;;;;49.42;23.80;;;;;;;-0.94;100.00;96545.00;4995695;28;20043;-69
2022/12/03 03:46:53;;;;;;;49.78;20.77;;;;;;;-0.89;100.00;96546.81;4995147;28;20034;-69
2022/12/03 03:49:19;;;;;;;45.83;20.23;;;;;;;-0.86;100.00;96546.25;4995851;28;20384;-71
2022/12/03 03:51:45;;;;;;;45.22;18.88;;;;;;;-0.72;100.00;96554.31;4995797;28;20038;-70
2022/12/03 03:54:11;;;;;;;41.55;19.05;;;;;;;-0.71;100.00;96548.63;4995580;28;20033;-69
2022/12/03 03:56:37;;;;;;;45.08;20.05;;;;;;;-0.66;100.00;96551.22;4994560;28;20041;-69
2022/12/03 03:59:02;;;;;;;45.67;20.98;;;;;;;-0.63;100.00;96549.81;4995180;28;20384;-71
2022/12/03 04:01:28;;;;;;;42.95;20.60;;;;;;;-0.81;100.00;96551.50;4995004;28;20392;-71
2022/12/03 04:03:54;;;;;;;47.67;20.80;;;;;;;-0.78;100.00;96551.69;5013543;28;20386;-69
2022/12/03 04:06:20;;;;;;;45.83;20.35;;;;;;;-0.81;100.00;96546.94;5013944;28;20411;-69
2022/12/03 04:08:45;;;;;;;42.17;19.83;;;;;;;-0.79;100.00;96549.34;5014574;28;20068;-69
2022/12/03 04:13:55;;;;;;;50.47;20.55;;;;;;;-0.73;100.00;96540.06;5014540;28;20029;-70
2022/12/03 04:16:20;;;;;;;44.40;20.58;;;;;;;-0.73;100.00;96532.00;5014017;28;20592;-68
2022/12/03 04:18:46;;;;;;;50.83;20.00;;;;;;;-0.77;100.00;96533.69;5014586;28;20030;-68
2022/12/03 04:24:05;;;;;;;47.53;20.40;;;;;;;-0.72;100.00;96530.91;5014650;28;20112;-69
2022/12/03 04:29:14;;;;;;;41.95;18.35;;;;;;;-0.59;100.00;96529.31;5015125;28;20036;-68
2022/12/03 04:37:08;;;;;;;53.13;20.30;;;;;;;-0.58;100.00;96536.28;5015387;28;20513;-70
2022/12/03 04:39:34;;;;;;;49.85;20.13;;;;;;;-0.55;100.00;96535.69;5016119;28;20049;-69
2022/12/03 04:41:59;;;;;;;51.25;21.15;;;;;;;-0.51;100.00;96530.50;5015516;28;20045;-71
2022/12/03 04:44:37;;;;;;;50.75;21.63;;;;;;;-0.54;100.00;96529.22;5014980;28;20076;-69
2022/12/03 04:47:08;;;;;;;46.03;19.35;;;;;;;-0.52;100.00;96527.03;5018604;28;20053;-69
2022/12/03 04:49:35;;;;;;;45.47;20.23;;;;;;;-0.55;100.00;96524.94;5018609;28;20205;-68
2022/12/03 04:52:01;;;;;;;47.22;19.95;;;;;;;-0.51;100.00;96528.63;5014784;28;20459;-72
2022/12/03 04:54:27;;;;;;;49.72;21.33;;;;;;;-0.54;100.00;96528.41;5014727;28;20038;-69
2022/12/03 04:56:53;;;;;;;45.63;19.42;;;;;;;-0.43;100.00;96529.84;5013455;28;20602;-69
2022/12/03 04:59:18;;;;;;;44.70;18.85;;;;;;;-0.39;100.00;96533.50;5015095;28;20049;-68
2022/12/03 05:01:44;;;;;;;45.60;22.13;;;;;;;-0.46;100.00;96533.09;5022068;28;20038;-68
2022/12/03 05:04:11;;;;;;;42.38;17.65;;;;;;;-0.48;100.00;96538.00;5019188;28;20060;-68
2022/12/03 05:06:36;;;;;;;40.88;19.52;;;;;;;-0.46;100.00;96538.50;5016677;28;20089;-68
2022/12/03 05:09:02;;;;;;;41.40;18.58;;;;;;;-0.47;100.00;96537.69;5015405;28;20080;-70
2022/12/03 05:11:27;;;;;;;42.58;19.73;;;;;;;-0.50;100.00;96530.22;5014629;28;20137;-68
2022/12/03 05:13:53;;;;;;;44.03;20.02;;;;;;;-0.51;100.00;96539.38;5013999;28;20503;-68
2022/12/03 05:16:19;;;;;;;45.97;19.35;;;;;;;-0.50;100.00;96545.56;5028527;28;20037;-67
2022/12/03 05:18:44;;;;;;;42.58;18.92;;;;;;;-0.52;100.00;96548.56;5013648;28;20030;-68
2022/12/03 05:21:09;;;;;;;45.75;19.33;;;;;;;-0.45;100.00;96554.34;5013692;28;20038;-69
2022/12/03 05:23:35;;;;;;;42.67;18.70;;;;;;;-0.44;100.00;96547.84;5020912;28;20034;-68
2022/12/03 05:26:00;;;;;;;42.42;19.02;;;;;;;-0.47;100.00;96536.88;5031701;28;20049;-69
2022/12/03 05:28:26;;;;;;;44.97;20.83;;;;;;;-0.49;100.00;96542.56;5028668;28;20060;-69
2022/12/03 05:30:51;;;;;;;44.20;19.17;;;;;;;-0.48;100.00;96544.16;5020123;28;20080;-69
2022/12/03 05:33:17;;;;;;;46.25;19.42;;;;;;;-0.46;100.00;96541.19;5017567;28;20030;-69
2022/12/03 05:35:42;;;;;;;45.92;20.92;;;;;;;-0.44;100.00;96539.00;5014996;28;20080;-69
2022/12/03 05:38:08;;;;;;;46.97;20.48;;;;;;;-0.46;100.00;96538.50;5017751;28;20089;-69
2022/12/03 05:40:33;;;;;;;44.80;20.27;;;;;;;-0.46;100.00;96536.59;5034406;28;20022;-70
2022/12/03 05:43:02;;;;;;;44.22;19.73;;;;;;;-0.43;100.00;96535.22;5034720;28;20045;-70
2022/12/03 05:45:39;;;;;;;45.07;18.37;;;;;;;-0.43;100.00;96532.53;5033334;28;20078;-71
2022/12/03 05:48:08;;;;;;;44.72;19.65;;;;;;;-0.39;100.00;96534.28;5034713;28;20329;-71
2022/12/03 05:50:36;;;;;;;51.75;21.50;;;;;;;-0.37;100.00;96523.25;5032780;28;20010;-70
2022/12/03 05:53:02;;;;;;;53.80;21.88;;;;;;;-0.33;100.00;96524.22;5032368;28;20058;-71
2022/12/03 05:55:28;;;;;;;48.78;20.40;;;;;;;-0.39;100.00;96531.59;5032960;28;20109;-71
2022/12/03 05:57:54;;;;;;;47.97;21.52;;;;;;;-0.39;100.00;96520.06;5035310;28;20039;-71
2022/12/03 06:00:25;;;;;;;46.78;22.30;;;;;;;-0.36;100.00;96521.34;5035201;28;20041;-70
2022/12/03 06:02:51;;;;;;;47.25;20.42;;;;;;;-0.34;100.00;96527.22;5031067;28;20112;-69
2022/12/03 06:05:20;;;;;;;44.80;20.73;;;;;;;-0.34;100.00;96533.41;5026965;28;20026;-69
2022/12/03 06:07:47;;;;;;;48.72;22.00;;;;;;;-0.26;100.00;96524.63;5035294;28;20038;-69
2022/12/03 06:10:15;;;;;;;50.45;22.70;;;;;;;-0.29;100.00;96524.41;5034933;28;20058;-71
2022/12/03 06:12:41;;;;;;;47.78;19.98;;;;;;;-0.14;100.00;96534.09;5034817;28;20033;-72
2022/12/03 06:15:07;;;;;;;46.40;20.70;;;;;;;-0.20;100.00;96536.88;5033348;28;20033;-70
2022/12/03 06:17:33;;;;;;;53.97;20.95;;;;;;;-0.21;100.00;96527.22;5033847;28;20073;-70
2022/12/03 06:19:59;;;;;;;47.08;20.67;;;;;;;-0.25;100.00;96528.13;5036006;28;20041;-70
2022/12/03 06:22:24;;;;;;;49.22;22.42;;;;;;;-0.31;100.00;96532.00;5033220;28;20034;-69
2022/12/03 06:24:50;;;;;;;44.67;20.23;;;;;;;-0.34;100.00;96527.22;5033561;28;20096;-70
2022/12/03 06:27:16;;;;;;;55.60;20.90;;;;;;;-0.35;100.00;96531.81;5050273;28;20034;-70
2022/12/03 06:29:41;;;;;;;51.78;20.67;;;;;;;-0.33;100.00;96532.28;5034460;28;20061;-69
2022/12/03 06:32:07;;;;;;;47.95;20.83;;;;;;;-0.41;100.00;96528.41;5033452;28;20037;-69
2022/12/03 06:34:33;;;;;;;50.30;21.05;;;;;;;-0.42;100.00;96526.81;5034081;28;20038;-68
2022/12/03 06:36:58;;;;;;;45.75;20.55;;;;;;;-0.38;100.00;96529.69;5014160;28;20037;-67
2022/12/03 06:39:23;;;;;;;50.75;21.42;;;;;;;-0.41;100.00;96533.81;5015217;28;20467;-69
2022/12/03 06:42:05;;;;;;;44.92;18.10;;;;;;;-0.35;100.00;96536.41;4995431;28;20478;-69
2022/12/03 06:44:30;;;;;;;41.13;17.83;;;;;;;-0.23;100.00;96529.41;5016954;28;20030;-70
2022/12/03 06:46:55;;;;;;;44.70;18.33;;;;;;;-0.20;100.00;96528.81;5012752;28;20037;-70
2022/12/03 06:49:21;;;;;;;40.53;16.95;;;;;;;-0.15;100.00;96519.81;5013280;28;20479;-69
2022/12/03 06:51:46;;;;;;;43.28;18.52;;;;;;;-0.28;100.00;96515.25;5012472;28;20037;-69
2022/12/03 06:54:12;;;;;;;41.25;18.20;;;;;;;-0.32;100.00;96515.06;4994977;28;20120;-69
2022/12/03 06:56:37;;;;;;;42.38;17.98;;;;;;;-0.31;100.00;96519.34;5012311;28;20069;-69
2022/12/03 06:59:02;;;;;;;45.35;19.25;;;;;;;-0.29;100.00;96517.16;5012092;28;20034;-69
2022/12/03 07:01:28;;;;;;;41.05;18.58;;;;;;;-0.28;100.00;96518.75;5012728;28;20041;-69
2022/12/03 07:03:53;;;;;;;43.08;18.95;;;;;;;-0.10;100.00;96517.03;5012342;28;20034;-70
2022/12/03 07:06:19;;;;;;;39.70;18.48;;;;;;;-0.21;100.00;96521.81;5011770;28;20109;-68
2022/12/03 07:08:44;;;;;;;41.63;17.90;;;;;;;-0.21;100.00;96523.72;5012392;28;20033;-69
2022/12/03 07:11:29;;;;;;;41.75;18.15;;;;;;;-0.30;100.00;96531.72;5012146;28;20037;-70
2022/12/03 07:13:59;;;;;;;46.63;19.98;;;;;;;-0.34;100.00;96536.09;5012840;28;20045;-69
2022/12/03 07:16:26;;;;;;;46.97;20.00;;;;;;;-0.33;100.00;96537.69;5011133;28;20057;-70
2022/12/03 07:18:51;;;;;;;45.42;20.02;;;;;;;-0.35;100.00;96528.31;5012185;28;20049;-69
2022/12/03 07:21:17;;;;;;;50.10;20.75;;;;;;;-0.32;100.00;96527.72;5010599;28;20430;-69
2022/12/03 07:23:42;;;;;;;43.92;20.42;;;;;;;-0.32;100.00;96531.22;5012101;28;20113;-70
2022/12/03 07:26:07;;;;;;;47.92;20.17;;;;;;;-0.26;100.00;96532.69;5012121;28;20034;-69
2022/12/03 07:28:33;;;;;;;45.97;21.75;;;;;;;-0.28;100.00;96532.19;5012973;28;20144;-69
2022/12/03 07:30:58;;;;;;;42.25;18.98;;;;;;;-0.26;100.00;96535.38;5015450;28;20444;-68
2022/12/03 07:33:24;;;;;;;44.97;19.50;;;;;;;-0.22;100.00;96536.41;5016451;28;20113;-69
2022/12/03 07:35:49;;;;;;;45.15;19.45;;;;;;;-0.18;100.00;96530.38;5012596;28;20106;-70
2022/12/03 07:38:15;;;;;;;41.53;19.17;;;;;;;-0.22;100.00;96528.31;5013385;28;20033;-69
2022/12/03 07:40:40;;;;;;;41.35;20.08;;;;;;;-0.07;100.00;96524.50;5014057;28;20030;-69
2022/12/03 07:43:05;;;;;;;41.47;20.92;;;;;;;-0.18;100.00;96523.13;5014014;28;20034;-69
2022/12/03 07:45:31;;;;;;;43.97;19.42;;;;;;;-0.19;100.00;96524.22;5012500;28;20040;-68
2022/12/03 07:47:56;;;;;;;46.53;22.67;;;;;;;-0.18;100.00;96514.25;5014122;28;20041;-69
2022/12/03 07:50:22;;;;;;;50.10;22.52;;;;;;;-0.11;100.00;96520.00;5015259;28;20049;-69
2022/12/03 07:52:47;;;;;;;46.67;20.90;;;;;;;-0.08;100.00;96512.13;5016495;28;20053;-70
2022/12/03 07:55:12;;;;;;;43.05;20.25;;;;;;;-0.09;100.00;96515.94;5013096;28;20092;-70
2022/12/03 07:57:38;;;;;;;42.42;19.05;;;;;;;-0.03;100.00;96519.31;5011160;28;20029;-69
2022/12/03 08:00:05;;;;;;;37.50;18.35;;;;;;;0.15;100.00;96510.28;5011512;28;20034;-71
2022/12/03 08:02:30;;;;;;;40.15;19.52;;;;;;;0.12;100.00;96512.78;5010228;28;20025;-70
2022/12/03 08:04:56;;;;;;;40.55;19.30;;;;;;;0.10;100.00;96512.31;5011902;28;20439;-70
2022/12/03 08:07:22;;;;;;;37.72;18.77;;;;;;;0.09;100.00;96513.38;5012877;28;20049;-71
2022/12/03 08:09:48;;;;;;;38.08;19.90;;;;;;;0.04;100.00;96514.31;5011415;28;20037;-70
2022/12/03 08:12:23;;;;;;;39.78;19.30;;;;;;;0.04;100.00;96517.00;5013166;28;20176;-70
2022/12/03 08:14:48;;;;;;;44.40;20.88;;;;;;;0.14;100.00;96527.53;5012838;28;20029;-70
2022/12/03 08:17:16;;;;;;;50.25;22.00;;;;;;;0.09;100.00;96524.16;5014046;28;20049;-69
2022/12/03 08:19:46;;;;;;;44.70;22.65;;;;;;;0.09;100.00;96519.59;5013919;28;20026;-69
2022/12/03 08:22:13;;;;;;;42.20;20.20;;;;;;;0.09;100.00;96533.06;5015279;28;20045;-69
2022/12/03 08:24:39;;;;;;;46.53;20.35;;;;;;;0.03;100.00;96515.41;5015136;28;20029;-70
2022/12/03 08:27:15;;;;;;;38.88;18.27;;;;;;;0.02;100.00;96518.38;5014332;28;20034;-71
2022/12/03 08:29:40;;;;;;;48.95;25.13;;;;;;;0.06;100.00;96527.47;5015155;28;20449;-70
2022/12/03 08:32:10;;;;;;;43.55;20.50;;;;;;;0.05;100.00;96526.66;5017668;28;20037;-67
2022/12/03 08:34:43;;;;;;;46.58;21.67;;;;;;;0.08;100.00;96530.66;5019203;28;20038;-69
2022/12/03 08:37:16;;;;;;;45.95;19.63;;;;;;;0.06;100.00;96527.47;5019599;28;20399;-70
2022/12/03 08:39:51;;;;;;;39.45;18.40;;;;;;;0.18;100.00;96519.63;5017026;28;20124;-69
2022/12/03 08:42:43;;;;;;;35.17;16.60;;;;;;;0.42;100.00;96521.28;5017136;28;20121;-70
2022/12/03 08:45:29;;;;;;;36.70;16.30;;;;;;;0.20;100.00;96520.16;5016391;28;20041;-68
2022/12/03 08:47:56;;;;;;;36.13;18.67;;;;;;;0.18;100.00;96516.94;5007331;28;20517;-69
2022/12/03 08:50:30;;;;;;;35.70;18.73;;;;;;;0.12;100.00;96520.88;5016635;28;20084;-71
2022/12/03 08:53:07;;;;;;;35.08;20.00;;;;;;;0.14;100.00;96516.75;5022099;28;20034;-70
2022/12/03 08:55:32;;;;;;;35.00;17.77;;;;;;;0.17;100.00;96515.38;5017822;28;20061;-70
2022/12/03 08:57:58;;;;;;;32.42;16.60;;;;;;;0.49;100.00;96517.06;4997676;28;20407;-71
2022/12/03 09:00:24;;;;;;;35.85;17.33;;;;;;;0.37;100.00;96514.91;5000084;28;20478;-71
2022/12/03 09:02:58;;;;;;;30.35;14.80;;;;;;;0.28;100.00;96513.25;5004803;28;20044;-72
2022/12/03 09:05:31;;;;;;;31.63;15.45;;;;;;;0.29;100.00;96514.81;5000352;28;20316;-71
2022/12/03 09:07:56;;;;;;;38.63;22.13;;;;;;;0.36;100.00;96516.00;5005423;28;20479;-70
2022/12/03 09:10:22;;;;;;;38.25;21.13;;;;;;;0.11;100.00;96512.00;4998403;28;20058;-71
2022/12/03 09:12:47;;;;;;;30.65;16.10;;;;;;;0.12;100.00;96502.81;5005086;28;20037;-70
2022/12/03 09:15:12;;;;;;;35.90;18.85;;;;;;;0.16;100.00;96514.59;4997043;28;20041;-70
2022/12/03 09:17:38;;;;;;;32.53;16.48;;;;;;;0.23;100.00;96514.16;5002618;28;20499;-70
2022/12/03 09:20:05;;;;;;;29.48;15.27;;;;;;;0.28;100.00;96515.94;5000038;28;20042;-70
2022/12/03 09:22:30;;;;;;;33.30;18.05;;;;;;;0.29;100.00;96521.03;5002643;28;20046;-71
2022/12/03 09:24:56;;;;;;;30.38;16.45;;;;;;;0.27;100.00;96517.03;5003822;28;20049;-70
2022/12/03 09:27:21;;;;;;;29.42;16.35;;;;;;;0.30;100.00;96522.59;4997314;28;21458;-68
2022/12/03 09:29:48;;;;;;;34.10;17.45;;;;;;;0.28;100.00;96529.41;5002922;28;20038;-69
2022/12/03 09:32:13;;;;;;;32.17;17.23;;;;;;;0.19;100.00;96522.03;4999921;28;20046;-69
2022/12/03 09:34:38;;;;;;;36.58;19.48;;;;;;;0.23;100.00;96514.16;5002346;28;20038;-70
2022/12/03 09:37:04;;;;;;;31.08;15.50;;;;;;;0.30;100.00;96519.91;4999283;28;20487;-71
2022/12/03 09:39:29;;;;;;;32.47;17.83;;;;;;;0.26;100.00;96512.75;5017462;28;20038;-69
2022/12/03 09:41:55;;;;;;;33.97;17.65;;;;;;;0.26;100.00;96513.53;5002827;28;20042;-69
2022/12/03 09:44:20;;;;;;;36.00;18.75;;;;;;;0.26;100.00;96507.38;4998663;28;20041;-70
2022/12/03 09:46:47;;;;;;;36.78;18.35;;;;;;;0.31;100.00;96502.66;5000667;28;20136;-69
2022/12/03 09:49:15;;;;;;;30.05;16.70;;;;;;;0.29;100.00;96501.34;4998643;28;20038;-68
2022/12/03 09:51:40;;;;;;;32.75;17.75;;;;;;;0.29;100.00;96495.97;5005364;28;20089;-68
2022/12/03 09:54:06;;;;;;;31.73;15.05;;;;;;;0.44;100.00;96495.63;5001765;28;20055;-69
2022/12/03 09:56:35;;;;;;;29.63;16.10;;;;;;;0.61;100.00;96494.16;4987056;28;20219;-69
2022/12/03 09:59:01;;;;;;;27.98;15.27;;;;;;;0.60;100.00;96487.19;5003357;28;20038;-69
2022/12/03 10:01:26;;;;;;;28.23;14.98;;;;;;;0.73;100.00;96484.38;4999626;28;20566;-69
2022/12/03 10:03:52;;;;;;;29.85;15.63;;;;;;;0.79;100.00;96485.06;5004441;28;20172;-69
2022/12/03 10:06:21;;;;;;;29.80;15.45;;;;;;;0.72;100.00;96484.69;4998330;28;20391;-69
2022/12/03 10:08:48;;;;;;;29.10;17.02;;;;;;;0.74;100.00;96496.00;5001460;28;20128;-70
2022/12/03 10:11:16;;;;;;;30.55;15.68;;;;;;;0.88;100.00;96491.31;4998309;28;20042;-69
2022/12/03 10:13:42;;;;;;;29.67;15.88;;;;;;;0.73;100.00;96484.38;5004083;28;20140;-68
2022/12/03 10:16:11;;;;;;;31.35;15.70;;;;;;;0.52;100.00;96478.72;4998027;28;20123;-68
2022/12/03 10:18:40;;;;;;;27.42;14.95;;;;;;;0.59;100.00;96480.19;5002061;28;20038;-70
2022/12/03 10:21:21;;;;;;;;;;;;;;;0.49;100.00;96470.47;5000319;28;20056;-70
2022/12/03 10:23:49;;;;;;;32.25;15.82;;;;;;;0.62;100.00;96461.50;5003691;28;20343;-68
2022/12/03 10:26:15;;;;;;;29.63;15.25;;;;;;;0.66;100.00;96462.47;4999706;28;20041;-69
2022/12/03 10:28:42;;;;;;;32.90;15.63;;;;;;;0.62;100.00;96466.88;5003886;28;20065;-69
2022/12/03 10:31:12;;;;;;;31.45;15.93;;;;;;;0.75;100.00;96468.69;5007991;28;20029;-71
2022/12/03 10:33:43;;;;;;;29.33;14.93;;;;;;;0.67;100.00;96463.28;5020565;28;20046;-71
2022/12/03 10:36:17;;;;;;;27.42;15.32;;;;;;;0.65;100.00;96458.19;4999332;28;20499;-69
2022/12/03 10:38:43;;;;;;;26.92;14.13;;;;;;;0.73;100.00;96446.66;5002965;28;20053;-71
2022/12/03 10:41:26;;;;;;;33.50;13.52;;;;;;;1.04;100.00;96440.44;4998664;28;20042;-69
2022/12/03 10:43:51;;;;;;;28.98;15.15;;;;;;;1.05;100.00;96442.06;5003925;28;20136;-70
2022/12/03 10:46:21;;;;;;;29.90;15.70;;;;;;;0.92;100.00;96441.03;4996872;28;20136;-69
2022/12/03 10:49:08;;;;;;;27.77;14.77;;;;;;;1.07;100.00;96428.25;5000694;28;20037;-69
2022/12/03 10:51:35;;;;;;;29.98;15.13;;;;;;;1.00;100.00;96420.59;4982550;28;20128;-70
2022/12/03 10:54:01;;;;;;;30.15;15.60;;;;;;;1.10;100.00;96425.72;4983170;28;20045;-71
2022/12/03 10:56:27;;;;;;;25.73;14.20;;;;;;;1.31;100.00;96420.56;4978266;28;20046;-70
2022/12/03 10:58:53;;;;;;;26.25;14.10;;;;;;;1.33;100.00;96418.34;4983901;28;20137;-69
2022/12/03 11:01:21;;;;;;;28.92;15.10;;;;;;;1.03;100.00;96408.41;4981279;28;20555;-69
2022/12/03 11:03:47;;;;;;;27.30;13.48;;;;;;;0.96;100.00;96408.88;4986670;28;20050;-70
2022/12/03 11:06:16;;;;;;;27.50;13.63;;;;;;;0.80;100.00;96411.16;4977729;28;20066;-69
2022/12/03 11:08:43;;;;;;;29.23;14.25;;;;;;;0.87;100.00;96400.72;4982377;28;20042;-68
2022/12/03 11:11:16;;;;;;;28.10;14.52;;;;;;;0.84;100.00;96403.25;4974959;28;20066;-69
2022/12/03 11:13:44;;;;;;;28.15;12.93;;;;;;;1.12;100.00;96390.38;4980096;28;20554;-70
2022/12/03 11:16:09;;;;;;;25.15;12.70;;;;;;;1.37;100.00;96393.41;4976777;28;20486;-69
2022/12/03 11:18:34;;;;;;;25.70;14.32;;;;;;;1.10;100.00;96393.38;4982365;28;20129;-70
2022/12/03 11:21:03;;;;;;;36.15;18.45;;;;;;;0.98;100.00;96385.06;4982104;28;20496;-70
2022/12/03 11:23:44;;;;;;;33.10;17.23;;;;;;;0.93;100.00;96387.91;4980629;28;20130;-70
2022/12/03 11:26:17;;;;;;;33.78;16.33;;;;;;;1.04;100.00;96391.91;4976355;28;20049;-69
2022/12/03 11:28:45;;;;;;;30.77;16.90;;;;;;;0.90;100.00;96380.44;4981031;28;20038;-70
2022/12/03 11:31:41;;;;;;;28.67;14.88;;;;;;;0.97;100.00;96386.16;4978594;28;20399;-69